Time,TemperatureF,DewpointF,PressureIn,WindDirection,WindDirectionDegrees,WindSpeedMPH,WindSpeedGustMPH,Humidity,HourlyPrecipIn,Conditions,Clouds,dailyrainin,SolarRadiationWatts/m^2,SoftwareType,DateUTC
2013-07-05 00:02:00,52.0,43.0,-100.00,WNW,293,0.0,5.0,72,0.00,,,0.00,25.000000,,2013-07-05 08:02:00,
2013-07-05 00:12:00,52.0,43.0,-100.00,WNW,293,0.0,5.0,72,0.00,,,0.00,25.000000,,2013-07-05 08:12:00,
2013-07-05 00:44:00,49.0,44.0,-100.00,West,281,1.0,4.0,83,0.00,,,0.00,7.000000,,2013-07-05 08:44:00,
2013-07-05 00:56:00,49.0,44.0,-100.00,West,281,1.0,4.0,83,0.00,,,0.00,7.000000,,2013-07-05 08:56:00,
2013-07-05 01:04:00,49.0,44.0,-100.00,West,281,1.0,4.0,83,0.00,,,0.00,7.000000,,2013-07-05 09:04:00,
2013-07-05 01:13:00,49.0,44.0,-100.00,West,281,1.0,4.0,83,0.00,,,0.00,7.000000,,2013-07-05 09:13:00,
2013-07-05 01:48:00,50.0,44.0,-100.00,West,261,1.0,5.0,79,0.00,,,-99.99,0.000000,,2013-07-05 09:48:00,
2013-07-05 01:55:00,50.0,44.0,-100.00,West,261,1.0,5.0,79,0.00,,,-99.99,0.000000,,2013-07-05 09:55:00,
2013-07-05 02:04:00,50.0,44.0,-100.00,West,261,1.0,5.0,79,0.00,,,-99.99,0.000000,,2013-07-05 10:04:00,
2013-07-05 02:13:00,50.0,44.0,-100.00,West,261,1.0,5.0,79,0.00,,,-99.99,0.000000,,2013-07-05 10:13:00,
2013-07-05 02:47:00,47.0,46.0,-100.00,North,350,0.0,2.0,95,0.00,,,0.00,0.000000,,2013-07-05 10:47:00,
2013-07-05 02:57:00,47.0,46.0,-100.00,North,350,0.0,2.0,95,0.00,,,0.00,0.000000,,2013-07-05 10:57:00,
2013-07-05 03:04:00,47.0,46.0,-100.00,North,350,0.0,2.0,95,0.00,,,0.00,0.000000,,2013-07-05 11:04:00,
2013-07-05 03:13:00,47.0,46.0,-100.00,North,350,0.0,2.0,95,0.00,,,0.00,0.000000,,2013-07-05 11:13:00,
2013-07-05 03:59:00,46.0,45.0,-100.00,NNW,327,0.0,2.0,97,0.00,,,0.00,0.000000,,2013-07-05 11:59:00,
2013-07-05 04:12:00,46.0,45.0,-100.00,NNW,327,0.0,2.0,97,0.00,,,0.00,0.000000,,2013-07-05 12:12:00,
2013-07-05 04:50:00,42.0,41.0,-100.00,WNW,291,0.0,0.0,97,0.00,,,0.00,5.000000,,2013-07-05 12:50:00,
2013-07-05 04:58:00,42.0,41.0,-100.00,WNW,291,0.0,0.0,97,0.00,,,0.00,5.000000,,2013-07-05 12:58:00,
2013-07-05 05:12:00,42.0,41.0,-100.00,WNW,291,0.0,0.0,97,0.00,,,0.00,5.000000,,2013-07-05 13:12:00,
2013-07-05 06:47:00,43.0,42.0,-100.00,East,80,0.0,0.0,98,-99.99,,,0.00,57.000000,,2013-07-05 14:47:00,
2013-07-05 06:56:00,43.0,42.0,-100.00,East,80,0.0,0.0,98,-99.99,,,0.00,57.000000,,2013-07-05 14:56:00,
2013-07-05 07:12:00,43.0,42.0,-100.00,East,80,0.0,0.0,98,-99.99,,,0.00,57.000000,,2013-07-05 15:12:00,
2013-07-05 07:43:00,48.0,48.0,-100.00,NE,56,0.0,3.0,99,0.00,,,0.00,96.000000,,2013-07-05 15:43:00,
2013-07-05 07:53:00,48.0,48.0,-100.00,NE,56,0.0,3.0,99,0.00,,,0.00,96.000000,,2013-07-05 15:53:00,
2013-07-05 08:01:00,48.0,48.0,-100.00,NE,56,0.0,3.0,99,0.00,,,0.00,96.000000,,2013-07-05 16:01:00,
2013-07-05 08:11:00,48.0,48.0,-100.00,NE,56,0.0,3.0,99,0.00,,,0.00,96.000000,,2013-07-05 16:11:00,
2013-07-05 08:44:00,54.0,49.0,-100.00,ESE,106,1.0,5.0,83,0.00,,,0.00,234.000000,,2013-07-05 16:44:00,
2013-07-05 08:53:00,54.0,49.0,-100.00,ESE,106,1.0,5.0,83,0.00,,,0.00,234.000000,,2013-07-05 16:53:00,
2013-07-05 09:01:00,54.0,49.0,-100.00,ESE,106,1.0,5.0,83,0.00,,,0.00,234.000000,,2013-07-05 17:01:00,
2013-07-05 09:12:00,54.0,49.0,-100.00,ESE,106,1.0,5.0,83,0.00,,,0.00,234.000000,,2013-07-05 17:12:00,
2013-07-05 09:43:00,58.0,49.0,-100.00,ENE,61,1.0,4.0,73,0.00,,,0.00,336.000000,,2013-07-05 17:43:00,
2013-07-05 09:53:00,58.0,49.0,-100.00,ENE,61,1.0,4.0,73,0.00,,,0.00,336.000000,,2013-07-05 17:53:00,
2013-07-05 10:01:00,58.0,49.0,-100.00,ENE,61,1.0,4.0,73,0.00,,,0.00,336.000000,,2013-07-05 18:01:00,
2013-07-05 10:11:00,58.0,49.0,-100.00,ENE,61,1.0,4.0,73,0.00,,,0.00,336.000000,,2013-07-05 18:11:00,
2013-07-05 10:43:00,60.0,47.0,-100.00,SW,221,1.0,4.0,62,0.00,,,0.00,369.000000,,2013-07-05 18:43:00,
2013-07-05 10:53:00,60.0,47.0,-100.00,SW,221,1.0,4.0,62,0.00,,,0.00,369.000000,,2013-07-05 18:53:00,
2013-07-05 11:01:00,60.0,47.0,-100.00,SW,221,1.0,4.0,62,0.00,,,0.00,369.000000,,2013-07-05 19:01:00,
2013-07-05 11:12:00,60.0,47.0,-100.00,SW,221,1.0,4.0,62,0.00,,,0.00,369.000000,,2013-07-05 19:12:00,
2013-07-05 11:43:00,65.0,44.0,-100.00,West,272,1.0,6.0,47,0.00,,,0.00,685.000000,,2013-07-05 19:43:00,
2013-07-05 11:53:00,65.0,44.0,-100.00,West,272,1.0,6.0,47,0.00,,,0.00,685.000000,,2013-07-05 19:53:00,
2013-07-05 12:01:00,65.0,44.0,-100.00,West,272,1.0,6.0,47,0.00,,,0.00,685.000000,,2013-07-05 20:01:00,
2013-07-05 12:11:00,65.0,44.0,-100.00,West,272,1.0,6.0,47,0.00,,,0.00,685.000000,,2013-07-05 20:11:00,
2013-07-05 12:43:00,65.0,41.0,-100.00,NNE,22,1.0,6.0,42,0.00,,,0.00,749.000000,,2013-07-05 20:43:00,
2013-07-05 12:53:00,65.0,41.0,-100.00,NNE,22,1.0,6.0,42,0.00,,,0.00,749.000000,,2013-07-05 20:53:00,
2013-07-05 13:01:00,65.0,41.0,-100.00,NNE,22,1.0,6.0,42,0.00,,,0.00,749.000000,,2013-07-05 21:01:00,
2013-07-05 13:11:00,65.0,41.0,-100.00,NNE,22,1.0,6.0,42,0.00,,,0.00,749.000000,,2013-07-05 21:11:00,
2013-07-05 13:43:00,65.0,43.0,-100.00,East,79,1.0,5.0,45,0.00,,,-99.99,322.000000,,2013-07-05 21:43:00,
2013-07-05 13:53:00,65.0,43.0,-100.00,East,79,1.0,5.0,45,0.00,,,-99.99,322.000000,,2013-07-05 21:53:00,
2013-07-05 14:01:00,65.0,43.0,-100.00,East,79,1.0,5.0,45,0.00,,,-99.99,322.000000,,2013-07-05 22:01:00,
2013-07-05 14:11:00,65.0,43.0,-100.00,East,79,1.0,5.0,45,0.00,,,-99.99,322.000000,,2013-07-05 22:11:00,
2013-07-05 14:43:00,66.0,42.0,-100.00,NNW,345,1.0,5.0,42,0.00,,,-99.99,457.000000,,2013-07-05 22:43:00,
2013-07-05 14:53:00,66.0,42.0,-100.00,NNW,345,1.0,5.0,42,0.00,,,-99.99,457.000000,,2013-07-05 22:53:00,
2013-07-05 15:02:00,66.0,42.0,-100.00,NNW,345,1.0,5.0,42,0.00,,,-99.99,457.000000,,2013-07-05 23:02:00,
2013-07-05 15:11:00,66.0,42.0,-100.00,NNW,345,1.0,5.0,42,0.00,,,-99.99,457.000000,,2013-07-05 23:11:00,
2013-07-05 15:43:00,56.0,38.0,-100.00,West,266,3.0,11.0,51,0.03,,,0.03,189.000000,,2013-07-05 23:43:00,
2013-07-05 15:53:00,56.0,38.0,-100.00,West,266,3.0,11.0,51,0.03,,,0.03,189.000000,,2013-07-05 23:53:00,
2013-07-05 16:01:00,56.0,38.0,-100.00,West,266,3.0,11.0,51,0.03,,,0.03,189.000000,,2013-07-06 00:01:00,
2013-07-05 16:11:00,56.0,38.0,-100.00,West,266,3.0,11.0,51,0.03,,,0.03,189.000000,,2013-07-06 00:11:00,
2013-07-05 17:43:00,67.0,44.0,-100.00,West,270,1.0,5.0,43,0.00,,,0.04,672.000000,,2013-07-06 01:43:00,
2013-07-05 17:53:00,67.0,44.0,-100.00,West,270,1.0,5.0,43,0.00,,,0.04,672.000000,,2013-07-06 01:53:00,
2013-07-05 18:02:00,67.0,44.0,-100.00,West,270,1.0,5.0,43,0.00,,,0.04,672.000000,,2013-07-06 02:02:00,
2013-07-05 18:11:00,67.0,44.0,-100.00,West,270,1.0,5.0,43,0.00,,,0.04,672.000000,,2013-07-06 02:11:00,
2013-07-05 18:43:00,70.0,45.0,-100.00,SW,214,1.0,7.0,41,0.00,,,0.04,582.000000,,2013-07-06 02:43:00,
2013-07-05 18:53:00,70.0,45.0,-100.00,SW,214,1.0,7.0,41,0.00,,,0.04,582.000000,,2013-07-06 02:53:00,
2013-07-05 19:02:00,70.0,45.0,-100.00,SW,214,1.0,7.0,41,0.00,,,0.04,582.000000,,2013-07-06 03:02:00,
2013-07-05 19:11:00,70.0,45.0,-100.00,SW,214,1.0,7.0,41,0.00,,,0.04,582.000000,,2013-07-06 03:11:00,
2013-07-05 19:43:00,70.0,44.0,-100.00,SSW,197,1.0,8.0,39,0.00,,,0.04,564.000000,,2013-07-06 03:43:00,
2013-07-05 19:53:00,70.0,44.0,-100.00,SSW,197,1.0,8.0,39,0.00,,,0.04,564.000000,,2013-07-06 03:53:00,
2013-07-05 20:01:00,70.0,44.0,-100.00,SSW,197,1.0,8.0,39,0.00,,,0.04,564.000000,,2013-07-06 04:01:00,
2013-07-05 20:12:00,70.0,44.0,-100.00,SSW,197,1.0,8.0,39,0.00,,,0.04,564.000000,,2013-07-06 04:12:00,
2013-07-05 20:43:00,64.0,42.0,-100.00,WNW,303,0.0,6.0,44,0.00,,,0.04,177.000000,,2013-07-06 04:43:00,
2013-07-05 20:53:00,64.0,42.0,-100.00,WNW,303,0.0,6.0,44,0.00,,,0.04,177.000000,,2013-07-06 04:53:00,
2013-07-05 21:02:00,64.0,42.0,-100.00,WNW,303,0.0,6.0,44,0.00,,,0.04,177.000000,,2013-07-06 05:02:00,
2013-07-05 21:12:00,64.0,42.0,-100.00,WNW,303,0.0,6.0,44,0.00,,,0.04,177.000000,,2013-07-06 05:12:00,
2013-07-05 21:43:00,65.0,43.0,-100.00,WSW,253,0.0,5.0,45,0.00,,,0.04,188.000000,,2013-07-06 05:43:00,
2013-07-05 21:53:00,65.0,43.0,-100.00,WSW,253,0.0,5.0,45,0.00,,,0.04,188.000000,,2013-07-06 05:53:00,
2013-07-05 22:01:00,65.0,43.0,-100.00,WSW,253,0.0,5.0,45,0.00,,,0.04,188.000000,,2013-07-06 06:01:00,
2013-07-05 22:12:00,65.0,43.0,-100.00,WSW,253,0.0,5.0,45,0.00,,,0.04,188.000000,,2013-07-06 06:12:00,
2013-07-05 22:43:00,58.0,44.0,-100.00,SW,231,0.0,2.0,59,0.00,,,0.04,60.000000,,2013-07-06 06:43:00,
2013-07-05 22:53:00,58.0,44.0,-100.00,SW,231,0.0,2.0,59,0.00,,,0.04,60.000000,,2013-07-06 06:53:00,
2013-07-05 23:01:00,58.0,44.0,-100.00,SW,231,0.0,2.0,59,0.00,,,0.04,60.000000,,2013-07-06 07:01:00,
2013-07-05 23:12:00,58.0,44.0,-100.00,SW,231,0.0,2.0,59,0.00,,,0.04,60.000000,,2013-07-06 07:12:00,
2013-07-05 23:44:00,55.0,47.0,-100.00,East,83,0.0,2.0,74,0.00,,,0.04,41.000000,,2013-07-06 07:44:00,
2013-07-05 23:52:00,55.0,47.0,-100.00,East,83,0.0,2.0,74,0.00,,,0.04,41.000000,,2013-07-06 07:52:00,